createdAt,value
2019-03-24T00:00:59.451Z,944.44
2019-03-24T00:01:59.939Z,944.44
2019-03-24T00:03:00.431Z,944.46
2019-03-24T00:04:01.772Z,944.48
2019-03-24T00:05:02.292Z,944.44
2019-03-24T00:06:03.059Z,944.48
2019-03-24T00:07:03.560Z,944.43
2019-03-24T00:08:03.767Z,944.45
2019-03-24T00:09:04.865Z,944.47
2019-03-24T00:10:05.553Z,944.42
2019-03-24T00:11:06.314Z,944.46
2019-03-24T00:12:06.802Z,944.44
2019-03-24T00:13:07.562Z,944.44
2019-03-24T00:14:08.322Z,944.44
2019-03-24T00:15:08.527Z,944.45
2019-03-24T00:16:09.290Z,944.42
2019-03-24T00:17:10.059Z,944.4
2019-03-24T00:18:10.821Z,944.38
2019-03-24T00:19:11.307Z,944.36
2019-03-24T00:20:12.354Z,944.34
2019-03-24T00:21:12.851Z,944.34
2019-03-24T00:22:13.890Z,944.34
2019-03-24T00:23:14.946Z,944.33
2019-03-24T00:24:15.720Z,944.28
2019-03-24T00:25:16.220Z,944.27
2019-03-24T00:26:16.705Z,944.32
2019-03-24T00:27:17.749Z,944.3
2019-03-24T00:28:18.789Z,944.34
2019-03-24T00:29:19.287Z,944.32
2019-03-24T00:30:19.944Z,944.29
2019-03-24T00:31:20.544Z,944.31
2019-03-24T00:32:21.306Z,944.29
2019-03-24T00:33:21.519Z,944.26
2019-03-24T00:34:22.001Z,944.24
2019-03-24T00:35:22.490Z,944.24
2019-03-24T00:36:23.259Z,944.25
2019-03-24T00:37:23.744Z,944.23
2019-03-24T00:38:24.506Z,944.21
2019-03-24T00:39:25.270Z,944.25
2019-03-24T00:40:25.866Z,944.27
2019-03-24T00:41:26.626Z,944.24
2019-03-24T00:42:27.115Z,944.26
2019-03-24T00:43:27.632Z,944.24
2019-03-24T00:44:28.116Z,944.24
2019-03-24T00:45:38.652Z,944.22
2019-03-24T00:46:39.578Z,944.22
2019-03-24T00:47:39.833Z,944.17
2019-03-24T00:48:40.599Z,944.17
2019-03-24T00:49:41.084Z,944.17
2019-03-24T00:50:41.575Z,944.16
2019-03-24T00:51:42.070Z,944.21
2019-03-24T00:52:42.556Z,944.17
2019-03-24T00:53:43.058Z,944.17
2019-03-24T00:54:43.819Z,944.14
2019-03-24T00:55:44.578Z,944.1
2019-03-24T00:56:45.113Z,944.13
2019-03-24T00:57:46.158Z,944.13
2019-03-24T00:58:47.477Z,944.15
2019-03-24T00:59:48.241Z,944.14
2019-03-24T01:00:49.320Z,944.14
2019-03-24T01:01:49.966Z,944.12
2019-03-24T01:02:50.447Z,944.08
2019-03-24T01:03:51.207Z,944.09
2019-03-24T01:04:51.991Z,944.08
2019-03-24T01:05:52.484Z,944.09
2019-03-24T01:06:53.418Z,944.08
2019-03-24T01:07:53.902Z,944.07
2019-03-24T01:08:54.429Z,944.06
2019-03-24T01:09:54.916Z,944.05
2019-03-24T01:10:55.280Z,944
2019-03-24T01:11:56.604Z,944.03
2019-03-24T01:12:57.404Z,944.03
2019-03-24T01:13:58.175Z,943.99
2019-03-24T01:14:58.937Z,944.04
2019-03-24T01:15:59.424Z,944.03
2019-03-24T01:16:59.920Z,944.01
2019-03-24T01:18:00.413Z,943.99
2019-03-24T01:19:01.284Z,943.99
2019-03-24T01:20:02.328Z,943.94
2019-03-24T01:21:02.829Z,943.92
2019-03-24T01:22:03.311Z,943.92
2019-03-24T01:23:03.653Z,943.9
2019-03-24T01:24:03.857Z,943.95
2019-03-24T01:25:04.196Z,943.94
2019-03-24T01:26:04.727Z,943.85
2019-03-24T01:27:05.677Z,943.87
2019-03-24T01:28:06.443Z,943.88
2019-03-24T01:29:06.656Z,943.85
2019-03-24T01:30:07.139Z,943.84
2019-03-24T01:31:07.903Z,943.82
2019-03-24T01:32:08.385Z,943.81
2019-03-24T01:33:09.436Z,943.81
2019-03-24T01:34:09.923Z,943.75
2019-03-24T01:35:10.413Z,943.74
2019-03-24T01:36:10.892Z,943.72
2019-03-24T01:37:11.692Z,943.71
2019-03-24T01:38:11.902Z,943.7
2019-03-24T01:39:12.387Z,943.67
2019-03-24T01:40:12.880Z,943.69
2019-03-24T01:41:13.369Z,943.69
2019-03-24T01:42:13.858Z,943.65
2019-03-24T01:43:14.344Z,943.66
2019-03-24T01:44:15.387Z,943.64
2019-03-24T01:45:15.706Z,943.57
2019-03-24T01:46:16.467Z,943.57
2019-03-24T01:47:16.835Z,943.49
2019-03-24T01:48:17.313Z,943.55
2019-03-24T01:49:17.797Z,943.5
2019-03-24T01:50:18.001Z,943.53
2019-03-24T01:51:18.513Z,943.5
2019-03-24T01:52:19.005Z,943.54
2019-03-24T01:53:19.484Z,943.48
2019-03-24T01:54:19.693Z,943.5
2019-03-24T01:55:20.173Z,943.51
2019-03-24T01:56:20.657Z,943.46
2019-03-24T01:57:21.591Z,943.51
2019-03-24T01:58:22.354Z,943.48
2019-03-24T01:59:22.608Z,943.45
2019-03-24T02:00:22.816Z,943.46
2019-03-24T02:01:23.312Z,943.45
2019-03-24T02:02:23.794Z,943.44
2019-03-24T02:03:24.272Z,943.46
2019-03-24T02:04:24.759Z,943.44
2019-03-24T02:05:25.527Z,943.43
2019-03-24T02:06:26.286Z,943.38
2019-03-24T02:07:27.268Z,943.42
2019-03-24T02:08:27.762Z,943.4
2019-03-24T02:09:28.801Z,943.35
2019-03-24T02:10:29.284Z,943.33
2019-03-24T02:11:29.489Z,943.31
2019-03-24T02:12:30.092Z,943.32
2019-03-24T02:13:31.185Z,943.31
2019-03-24T02:14:31.949Z,943.3
2019-03-24T02:15:32.999Z,943.26
2019-03-24T02:16:34.039Z,943.32
2019-03-24T02:17:34.700Z,943.32
2019-03-24T02:18:35.185Z,943.3
2019-03-24T02:19:35.944Z,943.3
2019-03-24T02:20:37.267Z,943.29
2019-03-24T02:21:37.476Z,943.3
2019-03-24T02:22:38.517Z,943.27
2019-03-24T02:23:39.005Z,943.26
2019-03-24T02:24:39.521Z,943.29
2019-03-24T02:25:40.007Z,943.26
2019-03-24T02:26:40.492Z,943.24
2019-03-24T02:27:40.750Z,943.25
2019-03-24T02:28:41.237Z,943.24
2019-03-24T02:29:41.848Z,943.2
2019-03-24T02:30:42.711Z,943.22
2019-03-24T02:31:43.222Z,943.23
2019-03-24T02:32:43.831Z,943.19
2019-03-24T02:33:45.158Z,943.21
2019-03-24T02:34:45.786Z,943.22
2019-03-24T02:35:46.844Z,943.22
2019-03-24T02:36:47.777Z,943.2
2019-03-24T02:37:48.897Z,943.21
2019-03-24T02:38:50.261Z,943.23
2019-03-24T02:39:50.606Z,943.2
2019-03-24T02:40:51.704Z,943.22
2019-03-24T02:41:52.895Z,943.23
2019-03-24T02:42:53.719Z,943.21
2019-03-24T02:43:54.000Z,943.21
2019-03-24T02:44:54.610Z,943.19
2019-03-24T02:45:55.661Z,943.2
2019-03-24T02:46:56.004Z,943.14
2019-03-24T02:47:56.596Z,943.12
2019-03-24T02:48:57.101Z,943.15
2019-03-24T02:49:57.910Z,943.18
2019-03-24T02:50:58.926Z,943.19
2019-03-24T02:51:59.967Z,943.15
2019-03-24T02:53:00.731Z,943.15
2019-03-24T02:54:01.725Z,943.16
2019-03-24T02:55:02.884Z,943.1
2019-03-24T02:56:03.514Z,943.13
2019-03-24T02:57:04.139Z,943.11
2019-03-24T02:58:04.984Z,943.11
2019-03-24T02:59:05.887Z,943.1
2019-03-24T03:00:07.006Z,943.13
2019-03-24T03:01:08.129Z,943.09
2019-03-24T03:02:08.483Z,943.06
2019-03-24T03:03:09.111Z,943.03
2019-03-24T03:04:09.730Z,943.03
2019-03-24T03:05:10.505Z,943.07
2019-03-24T03:06:10.882Z,943.03
2019-03-24T03:07:12.231Z,943.01
2019-03-24T03:08:13.048Z,943
2019-03-24T03:09:13.867Z,942.99
2019-03-24T03:10:15.194Z,942.99
2019-03-24T03:11:16.362Z,942.93
2019-03-24T03:12:16.985Z,942.97
2019-03-24T03:13:17.341Z,942.97
2019-03-24T03:14:18.437Z,942.93
2019-03-24T03:15:19.839Z,942.92
2019-03-24T03:16:20.904Z,942.88
2019-03-24T03:16:38.128Z,942.92
2019-03-24T03:16:41.351Z,942.93
2019-03-24T03:17:42.471Z,942.92
2019-03-24T03:18:43.270Z,942.89
2019-03-24T03:19:44.646Z,942.88
2019-03-24T03:20:45.559Z,942.89
2019-03-24T03:21:46.234Z,942.88
2019-03-24T03:22:46.851Z,942.91
2019-03-24T03:23:47.207Z,942.9
2019-03-24T03:24:48.268Z,942.93
2019-03-24T03:25:48.912Z,942.95
2019-03-24T03:26:49.542Z,942.98
2019-03-24T03:27:50.595Z,942.96
2019-03-24T03:28:51.139Z,943.01
2019-03-24T03:29:52.037Z,943.01
2019-03-24T03:30:52.680Z,942.98
2019-03-24T03:31:53.178Z,942.97
2019-03-24T03:32:54.223Z,942.99
2019-03-24T03:33:55.283Z,942.94
2019-03-24T03:34:56.280Z,942.95
2019-03-24T03:35:56.777Z,942.91
2019-03-24T03:36:57.968Z,942.95
2019-03-24T03:37:58.426Z,942.94
2019-03-24T03:38:58.842Z,942.9
2019-03-24T03:40:00.092Z,942.93
2019-03-24T03:41:00.905Z,942.92
2019-03-24T03:42:01.715Z,942.95
2019-03-24T03:43:03.122Z,942.93
2019-03-24T03:44:04.023Z,942.94
2019-03-24T03:45:05.096Z,942.94
2019-03-24T03:46:05.504Z,942.94
2019-03-24T03:47:06.636Z,942.94
2019-03-24T03:48:07.135Z,942.93
2019-03-24T03:49:07.774Z,942.94
2019-03-24T03:50:08.119Z,942.93
2019-03-24T03:51:09.078Z,942.91
2019-03-24T03:52:09.848Z,942.96
2019-03-24T03:53:10.931Z,942.93
2019-03-24T03:54:11.828Z,942.96
2019-03-24T03:55:12.761Z,942.97
2019-03-24T03:56:13.099Z,942.93
2019-03-24T03:57:13.426Z,942.95
2019-03-24T03:58:13.818Z,942.98
2019-03-24T03:59:14.752Z,943.01
2019-03-24T04:00:15.648Z,943.02
2019-03-24T04:01:16.831Z,943.05
2019-03-24T04:02:17.595Z,943.03
2019-03-24T04:03:18.238Z,943.05
2019-03-24T04:04:18.853Z,943.04
2019-03-24T04:05:20.202Z,943.04
2019-03-24T04:06:21.121Z,943.04
2019-03-24T04:07:21.474Z,943.05
2019-03-24T04:08:22.190Z,943.01
2019-03-24T04:09:22.824Z,943.03
2019-03-24T04:10:23.162Z,942.97
2019-03-24T04:11:23.846Z,942.97
2019-03-24T04:12:24.489Z,942.94
2019-03-24T04:13:25.261Z,942.96
2019-03-24T04:14:25.615Z,942.94
2019-03-24T04:15:26.498Z,942.9
2019-03-24T04:16:26.864Z,942.92
2019-03-24T04:17:27.361Z,942.91
2019-03-24T04:18:28.573Z,942.92
2019-03-24T04:19:29.195Z,942.9
2019-03-24T04:20:30.250Z,942.92
2019-03-24T04:21:30.854Z,942.94
2019-03-24T04:22:31.473Z,942.94
2019-03-24T04:23:32.314Z,942.96
2019-03-24T04:24:33.104Z,942.92
2019-03-24T04:25:33.918Z,942.94
2019-03-24T04:26:34.867Z,942.95
2019-03-24T04:27:35.926Z,942.93
2019-03-24T04:28:36.323Z,942.97
2019-03-24T04:29:37.215Z,942.92
2019-03-24T04:30:38.431Z,942.96
2019-03-24T04:31:39.204Z,942.94
2019-03-24T04:32:40.277Z,942.96
2019-03-24T04:33:41.318Z,942.96
2019-03-24T04:34:42.310Z,942.98
2019-03-24T04:35:42.937Z,942.95
2019-03-24T04:36:43.976Z,942.96
2019-03-24T04:37:44.737Z,942.94
2019-03-24T04:38:45.575Z,942.95
2019-03-24T04:39:46.675Z,942.97
2019-03-24T04:40:47.726Z,942.94
2019-03-24T04:41:48.088Z,942.98
2019-03-24T04:42:48.722Z,943
2019-03-24T04:43:50.059Z,943.02
2019-03-24T04:44:50.831Z,943.05
2019-03-24T04:45:51.870Z,943.05
2019-03-24T04:46:52.074Z,943.04
2019-03-24T04:47:52.559Z,943.05
2019-03-24T04:48:53.212Z,943.02
2019-03-24T04:49:53.701Z,943.05
2019-03-24T04:50:54.179Z,943.06
2019-03-24T04:51:55.080Z,943.06
2019-03-24T04:52:55.559Z,943.1
2019-03-24T04:53:56.354Z,943.08
2019-03-24T04:54:56.837Z,943.09
2019-03-24T04:55:57.601Z,943.1
2019-03-24T04:56:58.082Z,943.09
2019-03-24T04:57:58.855Z,943.09
2019-03-24T04:58:59.105Z,943.11
2019-03-24T04:59:59.310Z,943.09
2019-03-24T05:01:00.026Z,943.08
2019-03-24T05:02:01.065Z,943.07
2019-03-24T05:03:01.397Z,943.09
2019-03-24T05:04:02.169Z,943.11
2019-03-24T05:05:03.240Z,943.08
2019-03-24T05:06:03.833Z,943.09
2019-03-24T05:07:04.600Z,943.07
2019-03-24T05:08:04.811Z,943.09
2019-03-24T05:09:06.031Z,943.07
2019-03-24T05:10:06.513Z,943.07
2019-03-24T05:11:06.994Z,943.1
2019-03-24T05:12:08.070Z,943.07
2019-03-24T05:13:09.110Z,943.04
2019-03-24T05:14:09.587Z,943.04
2019-03-24T05:15:10.350Z,943.05
2019-03-24T05:16:10.831Z,943.06
2019-03-24T05:17:11.326Z,943.03
2019-03-24T05:18:12.086Z,943.04
2019-03-24T05:19:12.586Z,943.05
2019-03-24T05:20:13.094Z,943.04
2019-03-24T05:21:14.134Z,943.04
2019-03-24T05:22:15.176Z,943.01
2019-03-24T05:23:15.661Z,943.07
2019-03-24T05:24:16.701Z,943.11
2019-03-24T05:25:17.466Z,943.07
2019-03-24T05:26:18.248Z,943.07
2019-03-24T05:27:18.769Z,943.08
2019-03-24T05:28:18.972Z,943.08
2019-03-24T05:29:19.897Z,943.09
2019-03-24T05:30:20.382Z,943.11
2019-03-24T05:31:21.141Z,943.05
2019-03-24T05:32:21.349Z,943.03
2019-03-24T05:33:21.828Z,943.05
2019-03-24T05:34:22.589Z,943.07
2019-03-24T05:35:23.394Z,943.03
2019-03-24T05:36:23.873Z,943.05
2019-03-24T05:37:24.077Z,943.04
2019-03-24T05:38:24.561Z,943.04
2019-03-24T05:39:25.242Z,943.05
2019-03-24T05:40:26.001Z,943.03
2019-03-24T05:41:26.207Z,943.05
2019-03-24T05:42:26.709Z,943.03
2019-03-24T05:43:27.470Z,942.99
2019-03-24T05:44:27.672Z,943
2019-03-24T05:45:27.877Z,942.96
2019-03-24T05:46:28.084Z,943
2019-03-24T05:47:38.647Z,942.93
2019-03-24T05:48:39.621Z,942.99
2019-03-24T05:49:39.828Z,942.93
2019-03-24T05:50:40.880Z,943
2019-03-24T05:51:41.365Z,942.97
2019-03-24T05:52:42.130Z,942.96
2019-03-24T05:53:42.902Z,942.95
2019-03-24T05:54:43.688Z,942.97
2019-03-24T05:55:44.449Z,942.96
2019-03-24T05:56:44.935Z,942.97
2019-03-24T05:57:45.423Z,942.96
2019-03-24T05:58:45.683Z,942.95
2019-03-24T05:59:46.213Z,942.95
2019-03-24T06:00:46.697Z,942.98
2019-03-24T06:01:47.824Z,942.98
2019-03-24T06:02:48.039Z,942.99
2019-03-24T06:03:48.510Z,942.95
2019-03-24T06:04:48.714Z,942.98
2019-03-24T06:05:50.038Z,942.99
2019-03-24T06:06:50.523Z,942.94
2019-03-24T06:07:50.838Z,942.95
2019-03-24T06:08:51.813Z,942.98
2019-03-24T06:09:52.297Z,943.07
2019-03-24T06:10:53.063Z,943.12
2019-03-24T06:11:53.659Z,943.3
2019-03-24T06:12:54.141Z,943.38
2019-03-24T06:13:54.626Z,943.32
2019-03-24T06:14:55.949Z,943.27
2019-03-24T06:15:56.724Z,943.31
2019-03-24T06:16:57.207Z,943.44
2019-03-24T06:17:57.974Z,943.5
2019-03-24T06:18:59.073Z,943.46
2019-03-24T06:19:59.566Z,943.34
2019-03-24T06:20:59.980Z,943.29
2019-03-24T06:22:00.748Z,943.44
2019-03-24T06:23:01.071Z,943.53
2019-03-24T06:24:01.281Z,943.51
2019-03-24T06:25:02.407Z,943.61
2019-03-24T06:26:02.838Z,943.61
2019-03-24T06:27:04.082Z,943.63
2019-03-24T06:28:05.137Z,943.62
2019-03-24T06:29:06.087Z,943.67
2019-03-24T06:30:06.581Z,943.65
2019-03-24T06:31:06.800Z,943.7
2019-03-24T06:32:07.601Z,943.62
2019-03-24T06:33:08.373Z,943.66
2019-03-24T06:34:09.151Z,943.66
2019-03-24T06:35:09.924Z,943.6
2019-03-24T06:36:10.499Z,943.54
2019-03-24T06:37:10.721Z,943.54
2019-03-24T06:38:11.500Z,943.53
2019-03-24T06:39:12.022Z,943.51
2019-03-24T06:40:12.272Z,943.55
2019-03-24T06:41:13.326Z,943.6
2019-03-24T06:42:14.098Z,943.6
2019-03-24T06:43:14.425Z,943.56
2019-03-24T06:44:14.649Z,943.56
2019-03-24T06:45:15.168Z,943.59
2019-03-24T06:46:15.684Z,943.66
2019-03-24T06:47:16.204Z,943.64
2019-03-24T06:48:16.431Z,943.64
2019-03-24T06:49:16.659Z,943.65
2019-03-24T06:50:17.755Z,943.61
2019-03-24T06:51:18.812Z,943.6
2019-03-24T06:52:19.592Z,943.6
2019-03-24T06:53:20.652Z,943.58
2019-03-24T06:54:21.430Z,943.61
2019-03-24T06:55:22.517Z,943.6
2019-03-24T06:56:23.298Z,943.68
2019-03-24T06:57:24.078Z,943.69
2019-03-24T06:58:25.131Z,943.71
2019-03-24T06:59:26.086Z,943.67
2019-03-24T07:00:26.871Z,943.67
2019-03-24T07:01:27.398Z,943.55
2019-03-24T07:02:27.895Z,943.47
2019-03-24T07:03:28.117Z,943.5
2019-03-24T07:04:29.195Z,943.58
2019-03-24T07:05:29.699Z,943.59
2019-03-24T07:06:30.476Z,943.53
2019-03-24T07:07:30.935Z,943.57
2019-03-24T07:08:31.988Z,943.58
2019-03-24T07:09:32.670Z,943.6
2019-03-24T07:10:33.491Z,943.57
2019-03-24T07:11:33.994Z,943.57
2019-03-24T07:12:34.494Z,943.59
2019-03-24T07:13:34.728Z,943.61
2019-03-24T07:14:35.514Z,943.62
2019-03-24T07:15:36.871Z,943.62
2019-03-24T07:16:37.929Z,943.64
2019-03-24T07:17:38.427Z,943.61
2019-03-24T07:18:38.652Z,943.59
2019-03-24T07:19:39.619Z,943.61
2019-03-24T07:20:40.404Z,943.59
2019-03-24T07:21:41.189Z,943.59
2019-03-24T07:22:42.247Z,943.55
2019-03-24T07:23:42.473Z,943.54
2019-03-24T07:24:43.255Z,943.48
2019-03-24T07:25:44.032Z,943.5
2019-03-24T07:26:44.260Z,943.48
2019-03-24T07:27:44.764Z,943.49
2019-03-24T07:28:44.995Z,943.44
2019-03-24T07:29:45.700Z,943.43
2019-03-24T07:30:46.202Z,943.48
2019-03-24T07:31:46.540Z,943.46
2019-03-24T07:32:47.328Z,943.4
2019-03-24T07:33:47.556Z,943.36
2019-03-24T07:34:48.049Z,943.37
2019-03-24T07:35:48.836Z,943.39
2019-03-24T07:36:49.061Z,943.36
2019-03-24T07:37:49.595Z,943.4
2019-03-24T07:38:50.370Z,943.38
2019-03-24T07:39:50.617Z,943.42
2019-03-24T07:40:51.119Z,943.42
2019-03-24T07:41:51.625Z,943.41
2019-03-24T07:42:52.404Z,943.4
2019-03-24T07:43:53.459Z,943.37
2019-03-24T07:44:54.513Z,943.35
2019-03-24T07:45:54.733Z,943.33
2019-03-24T07:46:55.233Z,943.36
2019-03-24T07:47:55.456Z,943.36
2019-03-24T07:48:55.960Z,943.32
2019-03-24T07:49:56.521Z,943.36
2019-03-24T07:50:56.785Z,943.37
2019-03-24T07:51:57.007Z,943.36
2019-03-24T07:52:57.508Z,943.38
2019-03-24T07:53:58.010Z,943.35
2019-03-24T07:54:58.511Z,943.32
2019-03-24T07:55:59.297Z,943.33
2019-03-24T07:56:59.800Z,943.34
2019-03-24T07:58:00.029Z,943.32
2019-03-24T07:59:00.818Z,943.31
2019-03-24T08:00:01.354Z,943.28
2019-03-24T08:01:02.488Z,943.23
2019-03-24T08:02:02.994Z,943.23
2019-03-24T08:03:03.774Z,943.2
2019-03-24T08:04:06.600Z,943.2
2019-03-24T08:05:07.383Z,943.23
2019-03-24T08:06:07.885Z,943.25
2019-03-24T08:07:08.385Z,943.19
2019-03-24T08:08:09.446Z,943.2
2019-03-24T08:09:10.251Z,943.2
2019-03-24T08:10:11.211Z,943.22
2019-03-24T08:11:12.000Z,943.18
2019-03-24T08:12:12.261Z,943.18
2019-03-24T08:13:13.042Z,943.19
2019-03-24T08:14:13.828Z,943.19
2019-03-24T08:15:14.379Z,943.2
2019-03-24T08:16:14.891Z,943.16
2019-03-24T08:17:15.155Z,943.17
2019-03-24T08:18:15.669Z,943.15
2019-03-24T08:19:16.466Z,943.19
2019-03-24T08:20:17.028Z,943.13
2019-03-24T08:21:18.361Z,943.12
2019-03-24T08:22:18.863Z,943.11
2019-03-24T08:23:19.366Z,943.08
2019-03-24T08:24:19.867Z,943.09
2019-03-24T08:25:20.375Z,943.11
2019-03-24T08:26:20.883Z,943.08
2019-03-24T08:27:22.222Z,943.06
2019-03-24T08:28:23.864Z,943.07
2019-03-24T08:29:24.929Z,943.04
2019-03-24T08:30:25.640Z,943.03
2019-03-24T08:31:25.850Z,943.03
2019-03-24T08:32:26.626Z,943
2019-03-24T08:33:27.125Z,943.01
2019-03-24T08:34:27.625Z,943.02
2019-03-24T08:35:28.127Z,943.05
2019-03-24T08:36:28.909Z,942.99
2019-03-24T08:37:29.687Z,942.99
2019-03-24T08:38:30.189Z,943
2019-03-24T08:39:30.965Z,943.06
2019-03-24T08:40:31.959Z,943.01
2019-03-24T08:41:32.529Z,943.01
2019-03-24T08:42:33.308Z,943
2019-03-24T08:43:33.808Z,942.97
2019-03-24T08:44:34.314Z,942.98
2019-03-24T08:45:34.652Z,942.99
2019-03-24T08:46:35.432Z,942.98
2019-03-24T08:47:35.948Z,942.94
2019-03-24T08:48:41.428Z,942.93
2019-03-24T08:49:41.943Z,942.94
2019-03-24T08:50:42.628Z,942.95
2019-03-24T08:51:43.418Z,942.95
2019-03-24T08:52:43.921Z,942.91
2019-03-24T08:53:44.986Z,942.88
2019-03-24T08:54:45.491Z,942.83
2019-03-24T08:55:45.997Z,942.86
2019-03-24T08:56:46.500Z,942.82
2019-03-24T08:57:47.003Z,942.85
2019-03-24T08:58:47.503Z,942.8
2019-03-24T08:59:48.285Z,942.79
2019-03-24T09:00:31.148Z,942.79
2019-03-24T09:01:31.573Z,942.81
2019-03-24T09:02:32.080Z,942.79
2019-03-24T09:03:33.341Z,942.83
2019-03-24T09:04:34.397Z,942.8
2019-03-24T09:05:34.620Z,942.86
2019-03-24T09:06:35.420Z,942.85
2019-03-24T09:07:35.920Z,942.81
2019-03-24T09:08:36.144Z,942.81
2019-03-24T09:09:36.934Z,942.81
2019-03-24T09:10:37.712Z,942.83
2019-03-24T09:11:38.675Z,942.78
2019-03-24T09:12:39.182Z,942.8
2019-03-24T09:13:39.962Z,942.76
2019-03-24T09:14:40.465Z,942.76
2019-03-24T09:15:43.776Z,942.72
2019-03-24T09:16:44.301Z,942.69
2019-03-24T09:17:45.618Z,942.65
2019-03-24T09:18:53.190Z,942.67
2019-03-24T09:18:56.578Z,942.67
2019-03-24T09:19:57.290Z,942.66
2019-03-24T09:20:58.341Z,942.63
2019-03-24T09:21:59.133Z,942.65
2019-03-24T09:22:59.639Z,942.67
2019-03-24T09:24:00.418Z,942.6
2019-03-24T09:25:00.932Z,942.61
2019-03-24T09:26:02.002Z,942.58
2019-03-24T09:27:03.059Z,942.59
2019-03-24T09:28:03.392Z,942.6
2019-03-24T09:29:04.482Z,942.61
2019-03-24T09:30:05.545Z,942.57
2019-03-24T09:31:06.076Z,942.58
2019-03-24T09:32:07.134Z,942.63
2019-03-24T09:33:07.696Z,942.65
2019-03-24T09:34:08.482Z,942.65
2019-03-24T09:35:08.753Z,942.62
2019-03-24T09:36:08.996Z,942.65
2019-03-24T09:37:10.055Z,942.62
2019-03-24T09:38:10.560Z,942.59
2019-03-24T09:39:10.893Z,942.54
2019-03-24T09:40:11.653Z,942.55
2019-03-24T09:41:12.437Z,942.58
2019-03-24T09:42:12.943Z,942.6
2019-03-24T09:43:13.729Z,942.64
2019-03-24T09:44:14.236Z,942.6
2019-03-24T09:45:14.741Z,942.58
2019-03-24T09:46:14.964Z,942.57
2019-03-24T09:47:16.304Z,942.62
2019-03-24T09:48:16.529Z,942.67
2019-03-24T09:49:16.758Z,942.62
2019-03-24T09:50:17.164Z,942.63
2019-03-24T09:51:18.230Z,942.62
2019-03-24T09:52:18.710Z,942.59
2019-03-24T09:53:18.936Z,942.57
2019-03-24T09:54:20.276Z,942.58
2019-03-24T09:55:20.501Z,942.57
2019-03-24T09:56:20.756Z,942.58
2019-03-24T09:57:21.836Z,942.56
2019-03-24T09:58:22.456Z,942.6
2019-03-24T09:59:23.238Z,942.54
2019-03-24T10:00:23.516Z,942.57
2019-03-24T10:01:24.027Z,942.56
2019-03-24T10:02:24.871Z,942.57
2019-03-24T10:03:25.097Z,942.56
2019-03-24T10:04:25.874Z,942.59
2019-03-24T10:05:26.376Z,942.6
2019-03-24T10:06:27.435Z,942.63
2019-03-24T10:07:28.217Z,942.63
2019-03-24T10:08:29.006Z,942.58
2019-03-24T10:09:29.512Z,942.58
2019-03-24T10:10:30.233Z,942.57
2019-03-24T10:11:30.746Z,942.57
2019-03-24T10:12:31.247Z,942.58
2019-03-24T10:13:32.308Z,942.56
2019-03-24T10:14:32.810Z,942.6
2019-03-24T10:15:33.315Z,942.59
2019-03-24T10:16:33.654Z,942.59
2019-03-24T10:17:34.430Z,942.56
2019-03-24T10:18:35.220Z,942.57
2019-03-24T10:19:36.008Z,942.51
2019-03-24T10:20:36.700Z,942.52
2019-03-24T10:21:37.493Z,942.5
2019-03-24T10:22:38.553Z,942.48
2019-03-24T10:23:39.348Z,942.51
2019-03-24T10:24:39.575Z,942.49
2019-03-24T10:25:39.800Z,942.51
2019-03-24T10:26:40.364Z,942.48
2019-03-24T10:27:41.152Z,942.49
2019-03-24T10:28:42.225Z,942.48
2019-03-24T10:29:42.451Z,942.47
2019-03-24T10:30:43.273Z,942.44
2019-03-24T10:31:43.783Z,942.44
2019-03-24T10:32:44.563Z,942.42
2019-03-24T10:33:45.626Z,942.43
2019-03-24T10:34:45.962Z,942.42
2019-03-24T10:35:46.463Z,942.42
2019-03-24T10:36:47.005Z,942.38
2019-03-24T10:37:47.786Z,942.38
2019-03-24T10:38:48.289Z,942.4
2019-03-24T10:39:48.627Z,942.34
2019-03-24T10:40:31.050Z,942.36
2019-03-24T10:41:31.593Z,942.36
2019-03-24T10:42:32.431Z,942.39
2019-03-24T10:43:33.217Z,942.35
2019-03-24T10:44:33.997Z,942.34
2019-03-24T10:45:34.506Z,942.33
2019-03-24T10:46:35.569Z,942.38
2019-03-24T10:47:36.645Z,942.43
2019-03-24T10:48:37.151Z,942.36
2019-03-24T10:49:38.220Z,942.36
2019-03-24T10:50:38.726Z,942.33
2019-03-24T10:51:39.690Z,942.29
2019-03-24T10:52:40.483Z,942.3
2019-03-24T10:53:41.542Z,942.29
2019-03-24T10:54:42.318Z,942.34
2019-03-24T10:55:42.541Z,942.33
2019-03-24T10:56:43.603Z,942.3
2019-03-24T10:57:44.112Z,942.28
2019-03-24T10:58:44.900Z,942.31
2019-03-24T10:59:45.677Z,942.32
2019-03-24T11:00:46.179Z,942.29
2019-03-24T11:01:46.997Z,942.29
2019-03-24T11:02:48.066Z,942.27
2019-03-24T11:03:48.846Z,942.25
2019-03-24T11:04:49.070Z,942.21
2019-03-24T11:05:49.576Z,942.21
2019-03-24T11:06:49.817Z,942.19
2019-03-24T11:07:50.050Z,942.18
2019-03-24T11:08:50.548Z,942.2
2019-03-24T11:09:51.611Z,942.22
2019-03-24T11:10:52.128Z,942.16
2019-03-24T11:11:53.096Z,942.14
2019-03-24T11:12:53.321Z,942.16
2019-03-24T11:13:53.547Z,942.13
2019-03-24T11:14:54.089Z,942.1
2019-03-24T11:15:54.636Z,942.1
2019-03-24T11:16:55.148Z,942.07
2019-03-24T11:17:55.931Z,942.06
2019-03-24T11:18:56.157Z,942.04
2019-03-24T11:19:56.942Z,942.04
2019-03-24T11:20:57.167Z,942.01
2019-03-24T11:21:57.416Z,942.01
2019-03-24T11:22:58.752Z,941.97
2019-03-24T11:23:58.978Z,941.93
2019-03-24T11:24:59.203Z,941.92
2019-03-24T11:25:59.652Z,941.91
2019-03-24T11:27:00.433Z,941.91
2019-03-24T11:28:00.940Z,941.91
2019-03-24T11:29:01.746Z,941.89
2019-03-24T11:30:02.522Z,941.85
2019-03-24T11:31:03.583Z,941.83
2019-03-24T11:32:04.100Z,941.81
2019-03-24T11:33:05.450Z,941.82
2019-03-24T11:34:05.683Z,941.81
2019-03-24T11:35:06.476Z,941.8
2019-03-24T11:36:06.999Z,941.77
2019-03-24T11:37:07.781Z,941.79
2019-03-24T11:38:08.558Z,941.81
2019-03-24T11:39:09.616Z,941.73
2019-03-24T11:40:10.682Z,941.75
2019-03-24T11:41:11.521Z,941.73
2019-03-24T11:42:12.490Z,941.73
2019-03-24T11:43:12.996Z,941.72
2019-03-24T11:44:13.782Z,941.67
2019-03-24T11:45:14.561Z,941.65
2019-03-24T11:46:15.344Z,941.62
2019-03-24T11:47:26.950Z,941.64
2019-03-24T11:48:27.020Z,941.62
2019-03-24T11:49:28.096Z,941.63
2019-03-24T11:50:29.215Z,941.63
2019-03-24T11:51:29.718Z,941.63
2019-03-24T11:52:30.225Z,941.64
2019-03-24T11:53:30.727Z,941.63
2019-03-24T11:54:31.238Z,941.6
2019-03-24T11:55:31.744Z,941.57
2019-03-24T11:56:32.539Z,941.55
2019-03-24T11:57:33.319Z,941.56
2019-03-24T11:58:34.022Z,941.52
2019-03-24T11:59:34.432Z,941.55
2019-03-24T12:00:34.932Z,941.57
2019-03-24T12:01:39.139Z,941.55
2019-03-24T12:02:39.647Z,941.48
2019-03-24T12:03:40.424Z,941.48
2019-03-24T12:04:40.926Z,941.43
2019-03-24T12:05:41.463Z,941.41
2019-03-24T12:06:42.247Z,941.44
2019-03-24T12:07:43.044Z,941.41
2019-03-24T12:08:44.203Z,941.38
2019-03-24T12:09:44.430Z,941.39
2019-03-24T12:10:44.663Z,941.37
2019-03-24T12:11:45.454Z,941.38
2019-03-24T12:12:45.964Z,941.33
2019-03-24T12:13:47.023Z,941.34
2019-03-24T12:14:47.528Z,941.29
2019-03-24T12:15:47.768Z,941.27
2019-03-24T12:16:48.270Z,941.25
2019-03-24T12:17:49.092Z,941.26
2019-03-24T12:18:49.340Z,941.24
2019-03-24T12:19:57.426Z,941.23
2019-03-24T12:19:59.728Z,941.22
2019-03-24T12:21:00.422Z,941.21
2019-03-24T12:22:00.939Z,941.17
2019-03-24T12:23:01.717Z,941.21
2019-03-24T12:24:02.622Z,941.19
2019-03-24T12:25:03.405Z,941.19
2019-03-24T12:26:04.182Z,941.14
2019-03-24T12:27:04.725Z,941.12
2019-03-24T12:28:04.981Z,941.1
2019-03-24T12:29:05.202Z,941.1
2019-03-24T12:30:05.704Z,941.11
2019-03-24T12:31:06.788Z,941.12
2019-03-24T12:32:07.571Z,941.1
2019-03-24T12:33:08.123Z,941.1
2019-03-24T12:34:08.913Z,941.09
2019-03-24T12:35:09.418Z,941.07
2019-03-24T12:36:09.920Z,941.04
2019-03-24T12:37:10.142Z,941.03